createdAt,value
2019-06-07T00:01:45.795Z,41.10
2019-06-07T00:06:45.712Z,41.15
2019-06-07T00:11:45.792Z,40.79
2019-06-07T00:16:45.760Z,41.09
2019-06-07T00:22:15.826Z,40.61
2019-06-07T00:26:57.910Z,40.80
2019-06-07T00:31:45.683Z,40.92
2019-06-07T00:36:45.882Z,40.78
2019-06-07T00:41:45.741Z,40.94
2019-06-07T00:46:45.869Z,40.74
2019-06-07T00:51:50.551Z,41.10
2019-06-07T00:56:45.870Z,40.99
2019-06-07T01:01:45.865Z,40.98
2019-06-07T01:06:45.720Z,40.95
2019-06-07T01:11:45.922Z,40.80
2019-06-07T01:16:57.414Z,40.94
2019-06-07T01:21:45.669Z,40.82
2019-06-07T01:26:45.891Z,40.87
2019-06-07T01:31:45.955Z,40.98
2019-06-07T01:36:45.938Z,40.88
2019-06-07T01:41:45.747Z,40.93
2019-06-07T01:46:45.956Z,40.89
2019-06-07T01:51:45.854Z,40.97
2019-06-07T01:56:45.967Z,41.00
2019-06-07T02:01:45.961Z,41.09
2019-06-07T02:06:45.755Z,40.97
2019-06-07T02:11:45.997Z,40.76
2019-06-07T02:16:45.829Z,40.76
2019-06-07T02:21:45.662Z,40.50
2019-06-07T02:26:45.955Z,40.61
2019-06-07T02:31:45.756Z,40.64
2019-06-07T02:36:45.973Z,40.60
2019-06-07T02:41:45.794Z,40.80
2019-06-07T02:46:49.474Z,40.32
2019-06-07T02:51:45.873Z,40.65
2019-06-07T02:56:56.375Z,40.62
2019-06-07T03:01:46.022Z,40.55
2019-06-07T03:06:45.781Z,40.75
2019-06-07T03:11:46.040Z,40.41
2019-06-07T03:16:45.858Z,40.45
2019-06-07T03:21:46.147Z,40.38
2019-06-07T03:27:30.559Z,40.24
2019-06-07T03:31:47.761Z,40.25
2019-06-07T03:36:46.008Z,40.59
2019-06-07T03:42:04.781Z,40.40
2019-06-07T03:46:46.086Z,40.72
2019-06-07T03:51:45.932Z,40.24
2019-06-07T03:56:45.747Z,40.57
2019-06-07T04:01:45.983Z,40.38
2019-06-07T04:06:45.810Z,40.38
2019-06-07T04:11:46.047Z,39.78
2019-06-07T04:16:45.940Z,40.03
2019-06-07T04:21:46.133Z,40.22
2019-06-07T04:26:46.801Z,40.23
2019-06-07T04:31:46.214Z,39.75
2019-06-07T04:41:45.871Z,39.88
2019-06-07T04:46:46.126Z,39.47
2019-06-07T04:51:45.949Z,39.74
2019-06-07T04:56:46.249Z,39.79
2019-06-07T05:01:46.054Z,38.65
2019-06-07T05:06:45.843Z,39.76
2019-06-07T05:11:46.085Z,39.07
2019-06-07T05:16:46.322Z,38.96
2019-06-07T05:22:02.021Z,38.22
2019-06-07T05:26:46.091Z,38.28
2019-06-07T05:31:46.265Z,38.29
2019-06-07T05:36:47.882Z,37.67
2019-06-07T05:41:45.944Z,37.65
2019-06-07T05:46:47.462Z,37.48
2019-06-07T05:51:46.004Z,38.05
2019-06-07T05:56:45.815Z,37.65
2019-06-07T06:01:55.745Z,37.28
2019-06-07T06:06:47.092Z,37.39
2019-06-07T06:11:58.658Z,38.36
2019-06-07T06:16:47.935Z,37.93
2019-06-07T06:21:46.486Z,37.37
2019-06-07T06:26:51.197Z,37.25
2019-06-07T06:32:39.135Z,37.32
2019-06-07T06:36:47.272Z,37.86
2019-06-07T06:41:57.616Z,37.95
2019-06-07T06:46:50.158Z,37.54
2019-06-07T06:51:50.056Z,38.58
2019-06-07T06:56:47.038Z,38.54
2019-06-07T07:01:49.429Z,38.28
2019-06-07T07:06:45.930Z,38.34
2019-06-07T07:12:08.362Z,38.50
2019-06-07T07:16:50.089Z,38.42
2019-06-07T07:21:51.100Z,38.28
2019-06-07T07:26:48.200Z,38.54
2019-06-07T07:31:50.303Z,38.63
2019-06-07T07:36:48.208Z,38.93
2019-06-07T07:42:12.294Z,38.94
2019-06-07T07:46:46.635Z,38.87
2019-06-07T07:51:46.436Z,39.25
2019-06-07T07:56:47.128Z,39.40
2019-06-07T08:01:46.165Z,39.51
2019-06-07T08:06:46.586Z,39.88
2019-06-07T08:11:47.740Z,39.89
2019-06-07T08:16:47.015Z,40.98
2019-06-07T08:21:47.916Z,41.06
2019-06-07T08:27:09.410Z,41.26
2019-06-07T08:31:48.167Z,41.11
2019-06-07T08:36:46.182Z,41.69
2019-06-07T08:41:59.476Z,41.84
2019-06-07T08:46:46.237Z,41.99
2019-06-07T08:51:46.090Z,42.11
2019-06-07T08:56:45.899Z,42.69
2019-06-07T09:01:46.149Z,42.48
2019-06-07T09:07:07.348Z,42.14
2019-06-07T09:11:46.272Z,42.15
2019-06-07T09:16:46.038Z,42.71
2019-06-07T09:21:46.295Z,42.63
2019-06-07T09:26:46.110Z,42.47
2019-06-07T09:31:53.188Z,42.11
2019-06-07T09:36:46.206Z,42.56
2019-06-07T09:41:49.567Z,43.24
2019-06-07T09:46:46.283Z,43.87
2019-06-07T09:51:46.109Z,43.49
2019-06-07T09:56:46.332Z,43.28
2019-06-07T10:01:46.181Z,43.00
2019-06-07T10:06:46.024Z,42.83
2019-06-07T10:11:46.237Z,42.79
2019-06-07T10:16:47.304Z,42.48
2019-06-07T10:21:46.331Z,42.14
2019-06-07T10:26:46.184Z,42.53
2019-06-07T10:31:46.644Z,42.30
2019-06-07T10:36:46.315Z,42.29
2019-06-07T10:41:46.092Z,42.44
2019-06-07T10:46:46.316Z,42.62
2019-06-07T10:51:46.205Z,42.20
2019-06-07T10:56:45.986Z,42.18
2019-06-07T11:01:46.204Z,42.15
2019-06-07T11:06:46.451Z,42.85
2019-06-07T11:11:46.288Z,44.16
2019-06-07T11:16:46.119Z,43.97
2019-06-07T11:21:46.389Z,44.18
2019-06-07T11:26:46.188Z,44.85
2019-06-07T11:31:47.538Z,45.58
2019-06-07T11:36:46.286Z,46.61
2019-06-07T11:41:46.108Z,46.97
2019-06-07T11:46:46.363Z,48.20
2019-06-07T11:51:46.162Z,49.02
2019-06-07T11:56:46.414Z,49.83
2019-06-07T12:01:46.249Z,50.32
2019-06-07T12:06:46.469Z,50.94
2019-06-07T12:11:46.338Z,50.85
2019-06-07T12:16:46.140Z,50.41
2019-06-07T12:21:46.422Z,49.95
2019-06-07T12:26:46.233Z,49.77
2019-06-07T12:31:46.017Z,49.57
2019-06-07T12:36:46.333Z,49.29
2019-06-07T12:41:46.123Z,48.72
2019-06-07T12:46:46.365Z,47.97
2019-06-07T12:51:46.217Z,47.75
2019-06-07T12:56:46.464Z,47.75
2019-06-07T13:01:46.259Z,47.48
2019-06-07T13:06:46.517Z,47.24
2019-06-07T13:11:46.340Z,46.99
2019-06-07T13:16:46.184Z,47.04
2019-06-07T13:21:46.503Z,46.84
2019-06-07T13:26:46.271Z,46.68
2019-06-07T13:31:46.078Z,46.54
2019-06-07T13:36:46.321Z,46.39
2019-06-07T13:41:46.142Z,45.82
2019-06-07T13:46:46.411Z,45.85
2019-06-07T13:51:46.251Z,45.66
2019-06-07T13:57:01.446Z,45.62
2019-06-07T14:01:46.320Z,45.32
2019-06-07T14:06:46.559Z,45.06
2019-06-07T14:11:50.398Z,44.88
2019-06-07T14:16:46.215Z,44.67
2019-06-07T14:21:46.451Z,44.69
2019-06-07T14:26:46.310Z,44.82
2019-06-07T14:31:46.541Z,44.02
2019-06-07T14:36:46.404Z,43.74
2019-06-07T14:41:46.186Z,43.16
2019-06-07T14:46:46.469Z,42.87
2019-06-07T14:51:46.251Z,42.44
2019-06-07T14:56:46.507Z,41.57
2019-06-07T15:01:46.355Z,41.17
2019-06-07T15:06:46.585Z,40.58
2019-06-07T15:11:46.412Z,40.68
2019-06-07T15:16:46.221Z,40.05
2019-06-07T15:21:46.512Z,40.20
2019-06-07T15:26:46.299Z,39.56
2019-06-07T15:31:46.209Z,39.83
2019-06-07T15:36:46.580Z,39.55
2019-06-07T15:41:46.663Z,40.03
2019-06-07T15:46:46.476Z,39.48
2019-06-07T15:51:46.319Z,39.50
2019-06-07T15:56:46.560Z,39.77
2019-06-07T16:01:46.431Z,39.64
2019-06-07T16:06:46.622Z,39.78
2019-06-07T16:11:46.518Z,39.48
2019-06-07T16:16:46.283Z,39.67
2019-06-07T16:21:46.522Z,39.79
2019-06-07T16:26:46.361Z,39.64
2019-06-07T16:31:46.602Z,39.86
2019-06-07T16:36:46.952Z,39.76
2019-06-07T16:41:46.279Z,40.30
2019-06-07T16:46:46.514Z,40.30
2019-06-07T16:51:46.372Z,40.47
2019-06-07T16:56:50.822Z,40.46
2019-06-07T17:01:46.385Z,40.62
2019-06-07T17:06:47.950Z,40.67
2019-06-07T17:11:46.601Z,40.79
2019-06-07T17:16:47.922Z,41.30
2019-06-07T17:21:47.523Z,41.13
2019-06-07T17:26:47.567Z,41.18
2019-06-07T17:31:46.411Z,41.15
2019-06-07T17:36:46.491Z,41.10
2019-06-07T17:41:58.644Z,41.34
2019-06-07T17:46:47.609Z,41.08
2019-06-07T17:51:46.364Z,41.00
2019-06-07T17:56:46.602Z,41.20
2019-06-07T18:02:07.025Z,41.41
2019-06-07T18:06:47.333Z,41.18
2019-06-07T18:11:47.655Z,41.31
2019-06-07T18:16:46.524Z,41.02
2019-06-07T18:21:47.130Z,41.14
2019-06-07T18:26:46.493Z,41.15
2019-06-07T18:31:46.728Z,41.18
2019-06-07T18:36:46.939Z,41.04
2019-06-07T18:41:46.992Z,41.15
2019-06-07T18:46:46.585Z,41.33
2019-06-07T18:51:47.412Z,41.00
2019-06-07T18:56:46.815Z,40.94
2019-06-07T19:01:47.286Z,40.79
2019-06-07T19:06:46.720Z,40.97
2019-06-07T19:11:46.512Z,40.72
2019-06-07T19:16:46.473Z,40.67
2019-06-07T19:21:46.650Z,40.52
2019-06-07T19:26:46.472Z,40.52
2019-06-07T19:31:46.291Z,40.43
2019-06-07T19:36:48.971Z,40.15
2019-06-07T19:41:46.785Z,40.26
2019-06-07T19:46:46.655Z,40.19
2019-06-07T19:51:46.531Z,39.86
2019-06-07T19:56:46.730Z,39.86
2019-06-07T20:01:46.554Z,39.69
2019-06-07T20:06:46.763Z,39.94
2019-06-07T20:11:46.615Z,39.74
2019-06-07T20:16:46.420Z,39.69
2019-06-07T20:21:46.677Z,39.96
2019-06-07T20:26:46.521Z,39.69
2019-06-07T20:31:46.756Z,39.65
2019-06-07T20:36:46.573Z,39.75
2019-06-07T20:41:46.383Z,40.00
2019-06-07T20:46:46.645Z,39.86
2019-06-07T20:51:46.649Z,39.57
2019-06-07T20:56:46.727Z,39.54
2019-06-07T21:01:46.559Z,39.38
2019-06-07T21:06:46.786Z,39.04
2019-06-07T21:11:46.630Z,38.96
2019-06-07T21:16:46.450Z,38.87
2019-06-07T21:21:46.705Z,39.08
2019-06-07T21:26:46.542Z,38.77
2019-06-07T21:31:46.378Z,39.03
2019-06-07T21:36:46.614Z,39.27
2019-06-07T21:41:46.426Z,39.13
2019-06-07T21:46:46.698Z,39.15
2019-06-07T21:51:46.489Z,39.41
2019-06-07T21:56:46.715Z,39.44
2019-06-07T22:01:46.566Z,39.29
2019-06-07T22:06:46.827Z,39.37
2019-06-07T22:11:46.696Z,39.43
2019-06-07T22:16:46.468Z,39.71
2019-06-07T22:22:01.741Z,39.45
2019-06-07T22:26:46.544Z,39.42
2019-06-07T22:31:46.384Z,39.65
2019-06-07T22:36:46.615Z,39.56
2019-06-07T22:41:46.464Z,39.71
2019-06-07T22:46:46.708Z,39.79
2019-06-07T22:51:46.526Z,39.76
2019-06-07T22:56:46.801Z,40.00
2019-06-07T23:01:46.601Z,39.97
2019-06-07T23:06:46.877Z,39.80
2019-06-07T23:11:46.688Z,40.03
2019-06-07T23:16:55.495Z,39.91
2019-06-07T23:21:46.762Z,40.02
2019-06-07T23:26:46.556Z,40.03
2019-06-07T23:31:46.421Z,40.24
2019-06-07T23:36:46.693Z,39.87
2019-06-07T23:41:46.895Z,39.90
2019-06-07T23:46:46.713Z,39.86
2019-06-07T23:51:46.627Z,40.08
2019-06-07T23:56:46.789Z,39.88
